createdAt,value
2018-06-10T00:00:00.823Z,99.90
2018-06-10T00:02:28.697Z,99.90
2018-06-10T00:04:56.612Z,99.90
2018-06-10T00:07:24.460Z,99.90
2018-06-10T00:09:52.486Z,99.90
2018-06-10T00:12:20.455Z,99.90
2018-06-10T00:14:48.382Z,99.90
2018-06-10T00:17:16.244Z,99.90
2018-06-10T00:19:44.207Z,99.90
2018-06-10T00:22:12.073Z,99.90
2018-06-10T00:24:39.902Z,99.90
2018-06-10T00:27:07.797Z,99.90
2018-06-10T00:29:35.748Z,99.90
2018-06-10T00:34:31.403Z,99.90
2018-06-10T00:36:59.322Z,99.90
2018-06-10T00:39:27.154Z,99.90
2018-06-10T00:41:55.106Z,99.90
2018-06-10T00:44:23.052Z,99.90
2018-06-10T00:46:50.958Z,99.90
2018-06-10T00:49:18.971Z,99.90
2018-06-10T00:51:46.927Z,99.90
2018-06-10T00:54:14.796Z,99.90
2018-06-10T00:56:50.050Z,99.90
2018-06-10T00:59:17.973Z,99.90
2018-06-10T01:01:45.910Z,99.90
2018-06-10T01:04:13.848Z,99.90
2018-06-10T01:09:10.088Z,99.90
2018-06-10T01:11:38.511Z,99.90
2018-06-10T01:14:06.405Z,99.90
2018-06-10T01:16:34.658Z,99.90
2018-06-10T01:19:02.671Z,99.90
2018-06-10T01:21:30.625Z,99.90
2018-06-10T01:23:58.543Z,99.90
2018-06-10T01:26:32.111Z,99.90
2018-06-10T01:29:00.031Z,99.90
2018-06-10T01:31:28.070Z,99.90
2018-06-10T01:33:55.979Z,99.90
2018-06-10T01:36:23.869Z,99.90
2018-06-10T01:38:51.740Z,99.90
2018-06-10T01:41:19.573Z,99.90
2018-06-10T01:43:47.443Z,99.90
2018-06-10T01:46:15.358Z,99.90
2018-06-10T01:48:43.258Z,99.90
2018-06-10T01:51:11.108Z,99.90
2018-06-10T01:53:39.038Z,99.90
2018-06-10T01:56:06.949Z,99.90
2018-06-10T01:58:34.845Z,99.90
2018-06-10T02:01:02.755Z,99.90
2018-06-10T02:03:30.674Z,99.90
2018-06-10T02:05:58.578Z,99.90
2018-06-10T02:08:26.444Z,99.90
2018-06-10T02:10:54.300Z,99.90
2018-06-10T02:13:22.242Z,99.90
2018-06-10T02:15:50.140Z,99.90
2018-06-10T02:18:18.124Z,99.90
2018-06-10T02:20:46.144Z,99.90
2018-06-10T02:23:14.065Z,99.90
2018-06-10T02:25:41.869Z,99.90
2018-06-10T02:28:09.922Z,99.90
2018-06-10T02:30:37.726Z,99.90
2018-06-10T02:33:05.698Z,99.90
2018-06-10T02:35:33.582Z,99.90
2018-06-10T02:38:01.457Z,99.90
2018-06-10T02:40:29.412Z,99.90
2018-06-10T02:42:57.408Z,99.90
2018-06-10T02:45:25.413Z,99.90
2018-06-10T02:47:53.313Z,99.90
2018-06-10T02:50:21.209Z,99.90
2018-06-10T02:52:49.189Z,99.90
2018-06-10T02:55:17.099Z,99.90
2018-06-10T02:57:44.987Z,99.90
2018-06-10T03:00:12.922Z,99.90
2018-06-10T03:02:40.911Z,99.90
2018-06-10T03:05:08.858Z,99.90
2018-06-10T03:07:36.748Z,99.90
2018-06-10T03:10:04.610Z,99.90
2018-06-10T03:12:32.588Z,99.90
2018-06-10T03:15:00.617Z,99.90
2018-06-10T03:17:28.473Z,99.90
2018-06-10T03:19:56.319Z,99.90
2018-06-10T03:22:24.191Z,99.90
2018-06-10T03:24:52.156Z,99.90
2018-06-10T03:27:20.091Z,99.90
2018-06-10T03:29:48.019Z,99.90
2018-06-10T03:32:15.927Z,99.90
2018-06-10T03:34:43.766Z,99.90
2018-06-10T03:37:11.611Z,99.90
2018-06-10T03:39:39.502Z,99.90
2018-06-10T03:42:07.343Z,99.90
2018-06-10T03:44:35.276Z,99.90
2018-06-10T03:47:03.214Z,99.90
2018-06-10T03:49:31.116Z,99.90
2018-06-10T03:51:58.971Z,99.90
2018-06-10T03:54:26.918Z,99.90
2018-06-10T03:56:54.942Z,99.90
2018-06-10T03:59:22.853Z,99.90
2018-06-10T04:01:50.774Z,99.90
2018-06-10T04:04:18.704Z,99.90
2018-06-10T04:06:46.658Z,99.90
2018-06-10T04:09:14.568Z,99.90
2018-06-10T04:11:42.407Z,99.90
2018-06-10T04:14:10.297Z,99.90
2018-06-10T04:19:05.964Z,99.90
2018-06-10T04:21:33.866Z,99.90
2018-06-10T04:24:01.825Z,99.90
2018-06-10T04:26:29.691Z,99.90
2018-06-10T04:28:57.640Z,99.90
2018-06-10T04:31:25.556Z,99.90
2018-06-10T04:33:53.478Z,99.90
2018-06-10T04:36:21.408Z,99.90
2018-06-10T04:38:49.255Z,99.90
2018-06-10T04:41:17.154Z,99.90
2018-06-10T04:43:45.071Z,99.90
2018-06-10T04:46:12.922Z,99.90
2018-06-10T04:48:40.890Z,99.90
2018-06-10T04:51:08.801Z,99.90
2018-06-10T04:53:36.758Z,99.90
2018-06-10T04:56:04.650Z,99.90
2018-06-10T04:58:32.483Z,99.90
2018-06-10T05:01:00.445Z,99.90
2018-06-10T05:03:28.340Z,99.90
2018-06-10T05:05:56.312Z,99.90
2018-06-10T05:08:24.156Z,99.90
2018-06-10T05:10:52.095Z,99.90
2018-06-10T05:13:20.015Z,99.90
2018-06-10T05:15:47.955Z,99.90
2018-06-10T05:18:15.782Z,99.90
2018-06-10T05:20:43.644Z,99.90
2018-06-10T05:23:11.536Z,99.90
2018-06-10T05:25:39.381Z,99.90
2018-06-10T05:28:07.267Z,99.90
2018-06-10T05:30:35.061Z,99.90
2018-06-10T05:33:03.019Z,99.90
2018-06-10T05:35:30.899Z,99.90
2018-06-10T05:37:58.886Z,99.90
2018-06-10T05:40:26.825Z,99.90
2018-06-10T05:42:54.729Z,99.90
2018-06-10T05:45:22.598Z,99.90
2018-06-10T05:47:50.534Z,99.90
2018-06-10T05:50:18.462Z,99.90
2018-06-10T05:52:46.327Z,99.90
2018-06-10T05:55:14.319Z,99.90
2018-06-10T05:57:42.173Z,99.90
2018-06-10T06:00:10.165Z,99.90
2018-06-10T06:02:38.034Z,99.90
2018-06-10T06:05:05.952Z,99.90
2018-06-10T06:07:33.776Z,99.90
2018-06-10T06:10:01.732Z,99.90
2018-06-10T06:12:29.652Z,99.90
2018-06-10T06:14:57.559Z,99.90
2018-06-10T06:17:25.486Z,99.90
2018-06-10T06:19:53.400Z,99.90
2018-06-10T06:22:21.235Z,99.90
2018-06-10T06:24:49.171Z,99.90
2018-06-10T06:27:17.116Z,99.90
2018-06-10T06:29:44.982Z,99.90
2018-06-10T06:32:12.917Z,99.90
2018-06-10T06:34:40.801Z,99.90
2018-06-10T06:37:08.768Z,99.90
2018-06-10T06:39:36.647Z,99.90
2018-06-10T06:42:04.519Z,99.90
2018-06-10T06:44:32.454Z,99.90
2018-06-10T06:47:00.414Z,99.90
2018-06-10T06:49:28.272Z,99.90
2018-06-10T06:51:56.123Z,99.90
2018-06-10T06:54:23.967Z,99.90
2018-06-10T06:56:51.835Z,99.90
2018-06-10T06:59:19.781Z,99.90
2018-06-10T07:01:47.793Z,99.90
2018-06-10T07:04:15.804Z,99.90
2018-06-10T07:06:43.736Z,99.90
2018-06-10T07:09:11.876Z,99.90
2018-06-10T07:11:39.900Z,99.90
2018-06-10T07:14:08.691Z,99.90
2018-06-10T07:16:36.584Z,99.90
2018-06-10T07:19:04.556Z,99.90
2018-06-10T07:21:32.401Z,99.90
2018-06-10T07:24:00.300Z,99.90
2018-06-10T07:26:28.246Z,99.90
2018-06-10T07:28:56.168Z,99.90
2018-06-10T07:31:23.963Z,99.90
2018-06-10T07:33:51.968Z,99.90
2018-06-10T07:36:19.938Z,99.90
2018-06-10T07:38:47.938Z,99.90
2018-06-10T07:41:15.812Z,99.90
2018-06-10T07:46:18.397Z,99.90
2018-06-10T07:48:46.287Z,99.90
2018-06-10T07:51:14.197Z,99.90
2018-06-10T07:53:42.152Z,99.90
2018-06-10T07:56:10.258Z,99.90
2018-06-10T07:58:38.112Z,99.90
2018-06-10T08:01:06.023Z,99.90
2018-06-10T08:03:36.436Z,99.90
2018-06-10T08:06:04.374Z,99.90
2018-06-10T08:08:32.472Z,99.90
2018-06-10T08:11:00.334Z,94.20
2018-06-10T08:13:28.266Z,91.50
2018-06-10T08:15:56.175Z,90.30
2018-06-10T08:18:24.096Z,90.50
2018-06-10T08:20:52.054Z,90.30
2018-06-10T08:23:20.019Z,86.40
2018-06-10T08:25:47.962Z,84.30
2018-06-10T08:28:15.955Z,77.10
2018-06-10T08:30:43.726Z,73.50
2018-06-10T08:33:11.687Z,72.00
2018-06-10T08:35:46.249Z,69.50
2018-06-10T08:38:14.074Z,68.70
2018-06-10T08:40:42.168Z,69.10
2018-06-10T08:43:10.233Z,68.40
2018-06-10T08:45:38.335Z,65.20
2018-06-10T08:48:06.162Z,62.50
2018-06-10T08:50:34.211Z,60.40
2018-06-10T08:53:02.055Z,60.50
2018-06-10T08:55:30.035Z,62.90
2018-06-10T08:57:58.172Z,62.60
2018-06-10T09:00:26.032Z,63.00
2018-06-10T09:02:53.953Z,58.50
2018-06-10T09:05:21.823Z,60.10
2018-06-10T09:07:49.729Z,60.00
2018-06-10T09:10:17.667Z,61.00
2018-06-10T09:12:45.607Z,64.80
2018-06-10T09:15:13.411Z,66.70
2018-06-10T09:17:41.421Z,68.50
2018-06-10T09:20:09.296Z,73.00
2018-06-10T09:22:37.324Z,77.10
2018-06-10T09:25:05.557Z,80.40
2018-06-10T09:30:01.113Z,86.70
2018-06-10T09:32:29.090Z,89.60
2018-06-10T09:34:57.074Z,90.20
2018-06-10T09:37:25.085Z,90.50
2018-06-10T09:39:52.995Z,90.60
2018-06-10T09:42:21.070Z,90.40
2018-06-10T09:44:48.982Z,90.50
2018-06-10T09:47:16.860Z,90.20
2018-06-10T09:49:44.730Z,89.40
2018-06-10T09:52:12.601Z,90.40
2018-06-10T09:54:40.623Z,89.90
2018-06-10T09:57:08.671Z,89.30
2018-06-10T09:59:36.630Z,88.70
2018-06-10T10:02:04.671Z,85.60
2018-06-10T10:04:32.535Z,86.80
2018-06-10T10:07:00.409Z,85.30
2018-06-10T10:09:28.348Z,78.20
2018-06-10T10:11:56.295Z,71.20
2018-06-10T10:14:24.358Z,61.10
2018-06-10T10:16:52.310Z,56.50
2018-06-10T10:19:20.215Z,56.80
2018-06-10T10:21:48.315Z,58.80
2018-06-10T10:26:43.856Z,58.70
2018-06-10T10:29:11.770Z,59.60
2018-06-10T10:31:39.611Z,60.90
2018-06-10T10:34:07.499Z,59.60
2018-06-10T10:36:35.419Z,58.20
2018-06-10T10:39:04.040Z,57.10
2018-06-10T10:41:31.953Z,53.70
2018-06-10T10:43:59.832Z,51.50
2018-06-10T10:48:55.565Z,46.70
2018-06-10T10:51:23.387Z,45.20
2018-06-10T10:53:51.249Z,47.80
2018-06-10T10:56:19.111Z,50.20
2018-06-10T10:58:47.070Z,48.70
2018-06-10T11:01:15.112Z,47.80
2018-06-10T11:03:43.149Z,46.30
2018-06-10T11:06:11.035Z,46.30
2018-06-10T11:08:38.998Z,44.80
2018-06-10T11:11:06.951Z,45.60
2018-06-10T11:13:34.727Z,49.20
2018-06-10T11:16:02.601Z,51.90
2018-06-10T11:18:30.555Z,53.50
2018-06-10T11:20:58.493Z,51.90
2018-06-10T11:23:26.446Z,50.90
2018-06-10T11:25:54.359Z,49.50
2018-06-10T11:28:22.458Z,50.00
2018-06-10T11:30:50.382Z,50.80
2018-06-10T11:33:18.409Z,50.40
2018-06-10T11:35:46.396Z,50.90
2018-06-10T11:38:14.339Z,50.90
2018-06-10T11:40:42.261Z,49.80
2018-06-10T11:43:10.238Z,49.50
2018-06-10T11:45:38.030Z,50.90
2018-06-10T11:48:05.839Z,52.30
2018-06-10T11:50:33.712Z,53.90
2018-06-10T11:53:01.623Z,53.80
2018-06-10T11:55:29.405Z,54.30
2018-06-10T11:57:57.311Z,52.70
2018-06-10T12:00:25.138Z,51.50
2018-06-10T12:02:53.003Z,51.40
2018-06-10T12:05:20.927Z,50.50
2018-06-10T12:07:48.858Z,49.70
2018-06-10T12:10:16.723Z,51.10
2018-06-10T12:12:44.713Z,52.50
2018-06-10T12:15:12.627Z,53.00
2018-06-10T12:17:40.486Z,51.80
2018-06-10T12:20:08.355Z,51.00
2018-06-10T12:22:36.460Z,51.20
2018-06-10T12:25:04.381Z,51.50
2018-06-10T12:27:32.345Z,51.20
2018-06-10T12:32:27.950Z,50.50
2018-06-10T12:34:55.854Z,50.70
2018-06-10T12:37:23.699Z,50.10
2018-06-10T12:39:51.581Z,49.50
2018-06-10T12:42:19.435Z,50.10
2018-06-10T12:44:47.219Z,50.90
2018-06-10T12:47:15.159Z,51.40
2018-06-10T12:49:43.287Z,50.70
2018-06-10T12:52:11.258Z,52.10
2018-06-10T12:54:39.289Z,51.30
2018-06-10T12:57:07.390Z,51.80
2018-06-10T12:59:35.456Z,52.40
2018-06-10T13:02:03.422Z,52.30
2018-06-10T13:04:31.318Z,52.30
2018-06-10T13:06:59.176Z,51.80
2018-06-10T13:09:26.943Z,51.60
2018-06-10T13:11:54.760Z,51.20
2018-06-10T13:14:22.666Z,51.80
2018-06-10T13:16:50.526Z,51.70
2018-06-10T13:19:18.343Z,52.40
2018-06-10T13:21:46.265Z,51.80
2018-06-10T13:24:14.291Z,51.50
2018-06-10T13:29:09.977Z,51.50
2018-06-10T13:31:37.971Z,52.10
2018-06-10T13:34:05.906Z,51.00
2018-06-10T13:36:34.215Z,50.80
2018-06-10T13:39:02.058Z,51.40
2018-06-10T13:41:29.926Z,51.40
2018-06-10T13:43:57.725Z,51.40
2018-06-10T13:46:25.633Z,52.50
2018-06-10T13:48:53.538Z,53.40
2018-06-10T13:51:21.602Z,54.50
2018-06-10T13:53:50.095Z,55.80
2018-06-10T13:56:18.134Z,55.20
2018-06-10T13:58:46.223Z,55.90
2018-06-10T14:01:14.105Z,55.80
2018-06-10T14:03:42.213Z,55.50
2018-06-10T14:06:10.286Z,55.10
2018-06-10T14:08:38.234Z,52.80
2018-06-10T14:11:06.153Z,51.70
2018-06-10T14:13:34.167Z,50.70
2018-06-10T14:16:02.106Z,52.60
2018-06-10T14:18:30.011Z,53.30
2018-06-10T14:20:57.967Z,53.70
2018-06-10T14:23:25.913Z,54.50
2018-06-10T14:25:53.877Z,54.70
2018-06-10T14:28:21.789Z,53.70
2018-06-10T14:30:49.638Z,53.00
2018-06-10T14:33:17.571Z,53.50
2018-06-10T14:35:45.655Z,53.00
2018-06-10T14:38:13.604Z,52.80
2018-06-10T14:40:41.508Z,52.80
2018-06-10T14:43:09.414Z,51.60
2018-06-10T14:45:37.462Z,51.90
2018-06-10T14:48:05.380Z,51.70
2018-06-10T14:50:33.270Z,51.30
2018-06-10T14:53:01.118Z,51.20
2018-06-10T14:55:29.071Z,51.80
2018-06-10T14:57:56.912Z,51.70
2018-06-10T15:00:24.804Z,50.70
2018-06-10T15:02:52.622Z,50.30
2018-06-10T15:05:20.542Z,50.50
2018-06-10T15:07:48.476Z,50.70
2018-06-10T15:10:16.403Z,50.70
2018-06-10T15:12:44.337Z,50.90
2018-06-10T15:15:12.239Z,50.30
2018-06-10T15:17:40.165Z,50.40
2018-06-10T15:20:08.082Z,50.60
2018-06-10T15:22:35.977Z,50.20
2018-06-10T15:25:03.941Z,50.70
2018-06-10T15:27:31.802Z,50.20
2018-06-10T15:29:59.734Z,49.60
2018-06-10T15:32:27.653Z,49.70
2018-06-10T15:34:55.576Z,50.30
2018-06-10T15:37:23.451Z,50.70
2018-06-10T15:39:51.485Z,50.50
2018-06-10T15:42:19.494Z,51.60
2018-06-10T15:44:47.382Z,52.00
2018-06-10T15:47:15.380Z,52.90
2018-06-10T15:49:43.335Z,53.10
2018-06-10T15:52:11.263Z,52.30
2018-06-10T15:54:39.274Z,52.40
2018-06-10T15:57:07.128Z,52.50
2018-06-10T15:59:35.060Z,52.50
2018-06-10T16:02:02.911Z,53.10
2018-06-10T16:04:30.773Z,52.90
2018-06-10T16:06:58.597Z,53.70
2018-06-10T16:09:26.511Z,54.50
2018-06-10T16:11:54.493Z,54.90
2018-06-10T16:14:22.346Z,56.10
2018-06-10T16:16:50.419Z,57.00
2018-06-10T16:19:18.311Z,56.40
2018-06-10T16:24:14.081Z,57.00
2018-06-10T16:26:41.927Z,56.60
2018-06-10T16:29:09.799Z,56.40
2018-06-10T16:31:37.674Z,56.50
2018-06-10T16:34:05.647Z,56.90
2018-06-10T16:36:33.534Z,56.50
2018-06-10T16:39:01.387Z,57.20
2018-06-10T16:41:29.330Z,57.30
2018-06-10T16:43:57.341Z,57.20
2018-06-10T16:46:25.222Z,57.10
2018-06-10T16:48:53.241Z,57.30
2018-06-10T16:51:21.129Z,57.00
2018-06-10T16:53:49.930Z,57.20
2018-06-10T16:56:18.075Z,57.70
2018-06-10T16:58:45.947Z,57.90
2018-06-10T17:01:13.921Z,58.40
2018-06-10T17:03:41.786Z,58.60
2018-06-10T17:06:09.674Z,58.70
2018-06-10T17:08:37.597Z,59.30
2018-06-10T17:11:05.700Z,59.30
2018-06-10T17:13:33.683Z,59.90
2018-06-10T17:16:01.630Z,60.20
2018-06-10T17:18:29.602Z,60.80
2018-06-10T17:20:57.617Z,61.60
2018-06-10T17:23:25.518Z,61.90
2018-06-10T17:25:53.431Z,62.30
2018-06-10T17:28:21.321Z,62.50
2018-06-10T17:30:49.202Z,63.00
2018-06-10T17:33:17.173Z,63.50
2018-06-10T17:35:45.021Z,63.70
2018-06-10T17:40:40.780Z,64.00
2018-06-10T17:43:08.759Z,64.40
2018-06-10T17:45:36.726Z,65.30
2018-06-10T17:48:04.680Z,65.10
2018-06-10T17:50:32.528Z,65.00
2018-06-10T17:53:00.664Z,64.60
2018-06-10T17:55:28.542Z,64.50
2018-06-10T17:57:56.449Z,64.70
2018-06-10T18:00:24.274Z,64.90
2018-06-10T18:02:52.204Z,65.30
2018-06-10T18:05:20.108Z,65.90
2018-06-10T18:07:47.974Z,66.10
2018-06-10T18:10:15.869Z,66.10
2018-06-10T18:12:43.831Z,66.10
2018-06-10T18:17:46.246Z,67.10
2018-06-10T18:20:14.309Z,67.60
2018-06-10T18:22:42.254Z,68.00
2018-06-10T18:27:38.022Z,69.60
2018-06-10T18:30:06.201Z,70.10
2018-06-10T18:32:34.111Z,70.00
2018-06-10T18:35:02.080Z,70.80
2018-06-10T18:37:29.975Z,71.60
2018-06-10T18:39:57.922Z,72.10
2018-06-10T18:42:25.914Z,72.70
2018-06-10T18:44:53.810Z,73.30
2018-06-10T18:47:21.730Z,74.50
2018-06-10T18:49:49.696Z,74.00
2018-06-10T18:52:17.687Z,74.40
2018-06-10T18:54:45.664Z,75.40
2018-06-10T18:57:13.627Z,75.40
2018-06-10T18:59:41.758Z,75.60
2018-06-10T19:02:09.675Z,76.00
2018-06-10T19:04:37.605Z,76.50
2018-06-10T19:07:05.497Z,77.30
2018-06-10T19:09:33.485Z,77.90
2018-06-10T19:12:01.439Z,78.60
2018-06-10T19:14:29.369Z,79.40
2018-06-10T19:16:57.273Z,80.40
2018-06-10T19:19:25.278Z,80.70
2018-06-10T19:21:53.275Z,81.40
2018-06-10T19:24:21.326Z,82.50
2018-06-10T19:26:49.352Z,83.10
2018-06-10T19:29:17.333Z,83.90
2018-06-10T19:31:45.196Z,84.20
2018-06-10T19:34:13.144Z,84.70
2018-06-10T19:36:41.083Z,85.30
2018-06-10T19:39:09.149Z,86.00
2018-06-10T19:41:37.155Z,86.50
2018-06-10T19:44:05.060Z,87.40
2018-06-10T19:46:33.002Z,88.50
2018-06-10T19:49:00.877Z,88.40
2018-06-10T19:51:28.883Z,89.40
2018-06-10T19:53:56.818Z,90.00
2018-06-10T19:56:24.727Z,90.30
2018-06-10T19:58:52.679Z,90.60
2018-06-10T20:01:20.552Z,90.90
2018-06-10T20:03:48.687Z,91.20
2018-06-10T20:06:16.678Z,91.70
2018-06-10T20:08:44.747Z,91.90
2018-06-10T20:11:12.746Z,92.40
2018-06-10T20:13:40.643Z,92.30
2018-06-10T20:16:08.577Z,92.80
2018-06-10T20:18:36.566Z,92.90
2018-06-10T20:21:04.577Z,93.50
2018-06-10T20:23:32.425Z,93.50
2018-06-10T20:26:00.574Z,94.10
2018-06-10T20:28:28.639Z,94.30
2018-06-10T20:33:24.322Z,95.10
2018-06-10T20:35:52.286Z,95.50
2018-06-10T20:38:20.206Z,95.40
2018-06-10T20:40:48.102Z,95.80
2018-06-10T20:43:16.122Z,96.20
2018-06-10T20:45:44.067Z,96.30
2018-06-10T20:48:12.006Z,96.30
2018-06-10T20:50:40.057Z,97.10
2018-06-10T20:53:08.160Z,96.60
2018-06-10T20:55:36.255Z,96.70
2018-06-10T20:58:04.305Z,97.50
2018-06-10T21:00:32.162Z,97.90
2018-06-10T21:03:00.078Z,98.30
2018-06-10T21:05:28.237Z,98.30
2018-06-10T21:07:56.198Z,99.00
2018-06-10T21:10:24.196Z,99.50
2018-06-10T21:12:52.347Z,99.90
2018-06-10T21:15:20.458Z,99.90
2018-06-10T21:17:48.567Z,99.90
2018-06-10T21:20:16.694Z,99.90
2018-06-10T21:22:44.591Z,99.90
2018-06-10T21:25:12.597Z,99.90
2018-06-10T21:27:40.601Z,99.90
2018-06-10T21:30:08.540Z,99.90
2018-06-10T21:32:36.430Z,99.90
2018-06-10T21:35:04.403Z,99.90
2018-06-10T21:37:32.677Z,99.90
2018-06-10T21:40:00.547Z,99.90
2018-06-10T21:42:28.537Z,99.90
2018-06-10T21:45:09.478Z,99.90
2018-06-10T21:47:37.517Z,99.90
2018-06-10T21:50:05.423Z,99.90
2018-06-10T21:52:33.318Z,99.90
2018-06-10T21:55:01.231Z,99.90
2018-06-10T21:57:29.250Z,99.90
2018-06-10T21:59:57.149Z,99.90
2018-06-10T22:02:25.145Z,99.90
2018-06-10T22:04:52.968Z,99.90
2018-06-10T22:07:21.099Z,99.90
2018-06-10T22:09:49.062Z,99.90
2018-06-10T22:12:17.083Z,99.90
2018-06-10T22:14:45.036Z,99.90
2018-06-10T22:17:13.102Z,99.90
2018-06-10T22:19:41.153Z,99.90
2018-06-10T22:22:09.178Z,99.90
2018-06-10T22:24:37.144Z,99.90
2018-06-10T22:27:05.089Z,99.90
2018-06-10T22:29:33.169Z,99.90
2018-06-10T22:32:01.446Z,99.90
2018-06-10T22:34:29.276Z,99.90
2018-06-10T22:36:57.166Z,99.90
2018-06-10T22:39:25.343Z,99.90
2018-06-10T22:41:53.212Z,99.90
2018-06-10T22:44:21.115Z,99.90
2018-06-10T22:46:49.050Z,99.90
2018-06-10T22:49:16.907Z,99.90
2018-06-10T22:51:44.857Z,99.90
2018-06-10T22:54:36.945Z,99.90
2018-06-10T22:57:05.684Z,99.90
2018-06-10T22:59:33.614Z,99.90
2018-06-10T23:02:01.558Z,99.90
2018-06-10T23:04:29.609Z,99.90
2018-06-10T23:06:57.557Z,99.90
2018-06-10T23:09:25.516Z,99.90
2018-06-10T23:11:53.503Z,99.90
2018-06-10T23:14:21.575Z,99.90
2018-06-10T23:16:49.530Z,99.90
2018-06-10T23:19:17.447Z,99.90
2018-06-10T23:21:45.335Z,99.90
2018-06-10T23:24:13.263Z,99.90
2018-06-10T23:26:41.231Z,99.90
2018-06-10T23:29:09.187Z,99.90
2018-06-10T23:31:37.115Z,99.90
2018-06-10T23:34:05.006Z,99.90
2018-06-10T23:36:32.900Z,99.90
2018-06-10T23:39:00.775Z,99.90
2018-06-10T23:41:28.822Z,99.90
2018-06-10T23:43:56.908Z,99.90
2018-06-10T23:46:24.876Z,99.90
2018-06-10T23:48:52.797Z,99.90
2018-06-10T23:51:20.742Z,99.90
2018-06-10T23:53:48.612Z,99.90
2018-06-10T23:56:16.536Z,99.90
2018-06-10T23:58:44.412Z,99.90
